• Join FlightAware (Why Join?)
  • Login
  • US Flag 
04:32PM EDT


 

Airport Tracker/Info


-or-


 

Live Flight TrackerFlight Track Log ✈ AAL2007 ✈ 24-Jul-2013 ✈ KORD - KAUS

Flight Track Log - Related Links

Times and Time Zones

All times are in EDT time to prevent confusion due to time zone crossing. See the AAL2007 flight status page for this flight to view local times or setup timezone preferences in your user account.

Time Position Orientation Groundspeed Altitude Reporting Facility
EDT Latitude Longitude Course Direction KTS MPH feet Rate Location/Type
06:08PM 41.9667 -87.8667 207° Southwest 166 191 2,200  Level Chicago TRACON
06:09PM 41.9333 -87.8217 135° Southeast 206 237 3,600 1,920 Climbing Chicago Center
06:10PM 41.7009 -88.1876 201° Southwest  Level Estimated
06:10PM 41.8703 -87.8247 182° South 246 283 6,200  Level Chicago Center
06:11PM 41.6072 -88.2807 197° South  Level Estimated
06:11PM 41.8053 -87.8858 215° Southwest 282 325 8,400  Level Chicago Center
06:12PM 41.5134 -88.3736 194° South  Level Estimated
06:12PM 41.7344 -87.9369 208° Southwest 290 334 10,000  Level Chicago Center
06:13PM 41.4195 -88.4661 207° Southwest  Level Estimated
06:13PM 41.6475 -88.0006 209° Southwest 298 343 11,300  Level Chicago Center
06:14PM 41.5731 -88.0561 209° Southwest 307 353 13,200 1,860 Climbing Chicago Center
06:15PM 41.4875 -88.1194 209° Southwest 351 404 15,200 2,160 Climbing Chicago Center
06:16PM 41.3794 -88.1928 207° Southwest 380 437 17,700 2,160 Climbing Chicago Center
06:17PM 41.2758 -88.2392 199° South 398 458 19,700 1,800 Climbing Chicago Center
06:18PM 41.1692 -88.2883 199° South 407 468 21,500 1,620 Climbing Chicago Center
06:19PM 41.0586 -88.3369 198° South 419 482 23,100 1,440 Climbing Chicago Center
06:20PM 40.9444 -88.3889 199° South 434 499 24,500 1,560 Climbing Chicago Center
06:21PM 40.8050 -88.4506 199° South 442 509 26,400 1,620 Climbing Chicago Center
06:22PM 40.6853 -88.5039 199° South 452 520 27,900 1,560 Climbing Chicago Center
06:23PM 40.5672 -88.5567 199° South 453 521 29,700 1,440 Climbing Chicago Center
06:24PM 40.4461 -88.6100 199° South 450 518 30,900 960 Climbing Chicago Center
06:25PM 40.3261 -88.6644 199° South 453 521 31,800 960 Climbing Chicago Center
06:26PM 40.2372 -88.7708 222° Southwest 435 501 33,000 960 Climbing Chicago Center
06:27PM 40.1517 -88.8794 224° Southwest 427 491 33,800 480 Climbing Chicago Center
06:28PM 40.0469 -89.0061 223° Southwest 427 491 34,000 60 Climbing Chicago Center
06:29PM 39.9542 -89.1036 219° Southwest 427 491 34,000  Level Chicago Center
06:30PM 39.8975 -89.1647 220° Southwest 429 494 34,000  Level Kansas City Center
06:31PM 39.8056 -89.2658 220° Southwest 430 495 34,000  Level Kansas City Center
06:32PM 39.6942 -89.3858 220° Southwest 432 497 34,000  Level Kansas City Center
06:33PM 39.6106 -89.4778 220° Southwest 432 497 34,000  Level Kansas City Center
06:34PM 39.5181 -89.5772 220° Southwest 432 497 34,000  Level Kansas City Center
06:35PM 39.4086 -89.6953 220° Southwest 429 494 34,000  Level Kansas City Center
06:36PM 39.3169 -89.7922 219° Southwest 427 491 34,000  Level Kansas City Center
06:37PM 39.2253 -89.8906 220° Southwest 428 493 34,000  Level Kansas City Center
06:38PM 39.1350 -89.9889 220° Southwest 426 490 34,000  Level Kansas City Center
06:39PM 39.0419 -90.0856 219° Southwest 429 494 34,000  Level Kansas City Center
06:40PM 38.9272 -90.2050 219° Southwest 435 501 34,000  Level Kansas City Center
06:41PM 38.8356 -90.3033 220° Southwest 432 497 34,000  Level Kansas City Center
06:42PM 38.7428 -90.4025 220° Southwest 432 497 34,000  Level Kansas City Center
06:43PM 38.6456 -90.5008 218° Southwest 446 513 34,000  Level Kansas City Center
06:44PM 38.5503 -90.5978 219° Southwest 437 503 34,000  Level Kansas City Center
06:46PM 38.4481 -90.7042 219° Southwest 436 502 34,000  Level Kansas City Center
06:47PM 38.3531 -90.8022 219° Southwest 438 504 34,000  Level Kansas City Center
06:48PM 38.2592 -90.8975 219° Southwest 435 501 34,000  Level Kansas City Center
06:49PM 38.1653 -90.9947 219° Southwest 435 501 34,000  Level Kansas City Center
06:50PM 38.0578 -91.1033 219° Southwest 432 497 34,000  Level Kansas City Center
06:51PM 37.9633 -91.1997 219° Southwest 432 497 34,000  Level Kansas City Center
06:52PM 37.8672 -91.2969 219° Southwest 436 502 34,000  Level Kansas City Center
06:53PM 37.7731 -91.3922 219° Southwest 433 498 34,000  Level Kansas City Center
06:54PM 37.6789 -91.4878 219° Southwest 431 496 34,000  Level Kansas City Center
06:55PM 37.5653 -91.6014 218° Southwest 431 496 34,000  Level Kansas City Center
06:56PM 37.4717 -91.6950 218° Southwest 428 493 34,000  Level Kansas City Center
06:57PM 37.3761 -91.7903 218° Southwest 430 495 34,000  Level Kansas City Center
06:58PM 37.2803 -91.8856 218° Southwest 433 498 34,000  Level Kansas City Center
06:59PM 37.1847 -91.9806 218° Southwest 435 501 34,000  Level Kansas City Center
07:00PM 37.0878 -92.0769 218° Southwest 438 504 34,000  Level Kansas City Center
07:01PM 36.9911 -92.1731 218° Southwest 441 507 34,000  Level Kansas City Center
07:02PM 36.8936 -92.2669 218° Southwest 441 507 34,000  Level Kansas City Center
07:03PM 36.7769 -92.3828 219° Southwest 442 509 34,000  Level Kansas City Center
07:04PM 36.6800 -92.4775 218° Southwest 441 507 34,000  Level Kansas City Center
07:05PM 36.5817 -92.5719 218° Southwest 435 501 34,000  Level Kansas City Center
07:06PM 36.4858 -92.6614 217° Southwest 433 498 34,000  Level Kansas City Center
07:07PM 36.3914 -92.7528 218° Southwest 431 496 34,000  Level Kansas City Center
07:08PM 36.2731 -92.8669 218° Southwest 445 512 34,000  Level Memphis Center
07:09PM 36.1794 -92.9567 218° Southwest 440 506 34,000  Level Memphis Center
07:10PM 36.0836 -93.0511 219° Southwest 440 506 34,000  Level Memphis Center
07:11PM 35.9881 -93.1353 215° Southwest 440 506 34,000  Level Memphis Center
07:12PM 35.8922 -93.2294 219° Southwest 440 506 34,000  Level Memphis Center
07:13PM 35.7961 -93.3208 218° Southwest 445 512 34,000  Level Memphis Center
07:14PM 35.7000 -93.4094 217° Southwest 445 512 34,000  Level Memphis Center
07:15PM 35.6019 -93.5003 217° Southwest 445 512 34,000  Level Memphis Center
07:16PM 35.5058 -93.5908 217° Southwest 445 512 34,000  Level Memphis Center
07:17PM 35.4075 -93.6814 217° Southwest 445 512 34,000  Level Memphis Center
07:18PM 35.3133 -93.7692 217° Southwest 445 512 34,000  Level Memphis Center
07:19PM 35.2106 -93.8592 216° Southwest 445 512 34,000  Level Memphis Center
07:20PM 35.1078 -93.9589 218° Southwest 445 512 34,000  Level Memphis Center
07:21PM 35.0133 -94.0486 218° Southwest 446 513 34,000  Level Memphis Center
07:24PM 34.7908 -94.2556 217° Southwest 440 506 34,000  Level Fort Worth Center
07:25PM 34.6931 -94.3450 217° Southwest 440 506 34,000  Level Fort Worth Center
07:26PM 34.5950 -94.4319 216° Southwest 440 506 34,000  Level Fort Worth Center
07:27PM 34.4969 -94.5208 217° Southwest 440 506 34,000  Level Fort Worth Center
07:28PM 34.3967 -94.6097 216° Southwest 451 519 34,000  Level Fort Worth Center
07:29PM 34.2983 -94.6986 217° Southwest 451 519 34,000  Level Fort Worth Center
07:30PM 34.2003 -94.7869 217° Southwest 445 512 34,000  Level Fort Worth Center
07:31PM 34.1019 -94.8753 217° Southwest 445 512 34,000  Level Fort Worth Center
07:32PM 34.0014 -94.9633 216° Southwest 445 512 34,000  Level Fort Worth Center
07:33PM 33.9050 -95.0511 217° Southwest 445 512 34,000  Level Fort Worth Center
07:34PM 33.8064 -95.1361 216° Southwest 445 512 34,000  Level Fort Worth Center
07:35PM 33.7056 -95.2261 217° Southwest 445 512 34,000  Level Fort Worth Center
07:36PM 33.6089 -95.3108 216° Southwest 440 506 34,000  Level Fort Worth Center
07:37PM 33.5103 -95.3981 216° Southwest 453 521 34,000  Level Fort Worth Center
07:38PM 33.4094 -95.4850 216° Southwest 453 521 34,000  Level Fort Worth Center
07:39PM 33.3064 -95.5717 215° Southwest 447 514 34,000  Level Fort Worth Center
07:40PM 33.2217 -95.6453 216° Southwest 441 507 34,000  Level Fort Worth Center
07:41PM 33.1206 -95.7317 216° Southwest 447 514 34,000  Level Fort Worth Center
07:42PM 33.0194 -95.8203 216° Southwest 447 514 34,000  Level Fort Worth Center
07:43PM 32.9183 -95.9089 216° Southwest 447 514 34,000  Level Fort Worth Center
07:44PM 32.8169 -95.9969 216° Southwest 447 514 34,000  Level Fort Worth Center
07:45PM 32.7178 -96.0800 215° Southwest 447 514 34,000  Level Fort Worth Center
07:46PM 32.6164 -96.1703 217° Southwest 447 514 34,000  Level Fort Worth Center
07:47PM 32.5150 -96.2556 215° Southwest 447 514 34,000  Level Fort Worth Center
07:48PM 32.4114 -96.3431 215° Southwest 447 514 34,000  Level Fort Worth Center
07:49PM 32.3119 -96.4303 217° Southwest 447 514 34,000  Level Fort Worth Center
07:50PM 32.2081 -96.5172 215° Southwest 447 514 34,000  Level Fort Worth Center
07:51PM 32.1042 -96.6017 215° Southwest 452 520 34,000  Level Fort Worth Center
07:52PM 32.0047 -96.6956 219° Southwest 457 526 34,000  Level Fort Worth Center
07:53PM 31.9594 -96.8256 248° West 439 505 34,000  Level Fort Worth Center
07:54PM 31.9683 -96.9678 274° West 413 475 34,000 -240 Level Fort Worth Center
07:55PM 31.9122 -97.1000 243° Southwest 418 481 33,600 -900 Descending Fort Worth Center
07:56PM 31.7869 -97.0981 179° South 352 405 32,300 -1,800 Descending Fort Worth Center
07:57PM 31.6764 -97.1350 196° South 404 465 30,100 -2,940 Descending Fort Worth Center
07:58PM 31.5058 -97.1639 188° South 472 543 25,600 -3,240 Descending Houston Center
07:59PM 31.3728 -97.1836 187° South 476 548 22,600 -3,000 Descending Houston Center
08:00PM 31.2239 -97.2081 188° South 463 533 19,400 -2,820 Descending Houston Center
08:01PM 31.1089 -97.2500 197° South 437 503 16,800 -2,460 Descending Houston Center
08:02PM 31.0000 -97.2925 198° South 422 486 14,400 -1,860 Descending Houston Center
08:03PM 30.8994 -97.3322 199° South 408 470 13,000 -840 Descending Houston Center
08:04PM 30.7864 -97.3775 199° South 368 423 12,700 -780 Descending Houston Center
08:05PM 30.7103 -97.4408 216° Southwest 334 384 11,400 -1,920 Descending Houston Center
08:06PM 30.6414 -97.4975 215° Southwest 310 357 8,800 -2,280 Descending Houston Center
08:07PM 30.5719 -97.5528 214° Southwest 302 348 6,700 -2,160 Descending Houston Center
08:08PM 30.5094 -97.5914 208° Southwest 262 302 4,400 -1,740 Descending Houston Center
08:09PM 30.4522 -97.6247 207° Southwest 238 274 3,200 -720 Descending Houston Center
08:10PM 30.3997 -97.6569 208° Southwest 219 252 3,000 -240 Descending Houston Center